sensor_id;sensor_type;location;lat;lon;timestamp;P1;durP1;ratioP1;P2;durP2;ratioP2
64498;SDS011;51087;55.718;21.122;2022-09-09T00:02:24;1.85;;;0.93;;
64498;SDS011;51087;55.718;21.122;2022-09-09T00:04:58;2.05;;;0.90;;
64498;SDS011;51087;55.718;21.122;2022-09-09T00:10:29;1.42;;;0.90;;
64498;SDS011;51087;55.718;21.122;2022-09-09T00:13:25;6.65;;;1.10;;
64498;SDS011;51087;55.718;21.122;2022-09-09T00:21:05;3.08;;;0.85;;
64498;SDS011;51087;55.718;21.122;2022-09-09T00:23:44;2.47;;;0.90;;
64498;SDS011;51087;55.718;21.122;2022-09-09T00:31:35;1.98;;;0.80;;
64498;SDS011;51087;55.718;21.122;2022-09-09T00:34:09;1.10;;;0.80;;
64498;SDS011;51087;55.718;21.122;2022-09-09T00:36:39;3.67;;;1.00;;
64498;SDS011;51087;55.718;21.122;2022-09-09T00:39:06;1.60;;;0.85;;
64498;SDS011;51087;55.718;21.122;2022-09-09T00:55:03;1.63;;;0.77;;
64498;SDS011;51087;55.718;21.122;2022-09-09T00:57:31;3.65;;;0.75;;
64498;SDS011;51087;55.718;21.122;2022-09-09T01:00:14;2.20;;;0.85;;
64498;SDS011;51087;55.718;21.122;2022-09-09T01:11:03;3.08;;;1.15;;
64498;SDS011;51087;55.718;21.122;2022-09-09T01:13:31;3.53;;;1.08;;
64498;SDS011;51087;55.718;21.122;2022-09-09T01:15:59;1.58;;;0.90;;
64498;SDS011;51087;55.718;21.122;2022-09-09T01:18:37;1.67;;;0.90;;
64498;SDS011;51087;55.718;21.122;2022-09-09T01:29:07;2.58;;;1.08;;
64498;SDS011;51087;55.718;21.122;2022-09-09T01:31:41;2.65;;;1.00;;
64498;SDS011;51087;55.718;21.122;2022-09-09T01:34:18;1.45;;;0.77;;
64498;SDS011;51087;55.718;21.122;2022-09-09T01:36:46;1.73;;;0.90;;
64498;SDS011;51087;55.718;21.122;2022-09-09T01:39:17;0.70;;;0.70;;
64498;SDS011;51087;55.718;21.122;2022-09-09T01:41:43;2.28;;;1.20;;
64498;SDS011;51087;55.718;21.122;2022-09-09T01:44:08;1.60;;;1.00;;
64498;SDS011;51087;55.718;21.122;2022-09-09T01:46:35;2.60;;;1.00;;
64498;SDS011;51087;55.718;21.122;2022-09-09T01:49:01;1.92;;;0.98;;
64498;SDS011;51087;55.718;21.122;2022-09-09T01:51:28;1.95;;;1.10;;
64498;SDS011;51087;55.718;21.122;2022-09-09T01:53:55;7.03;;;1.20;;
64498;SDS011;51087;55.718;21.122;2022-09-09T02:02:07;4.20;;;1.00;;
64498;SDS011;51087;55.718;21.122;2022-09-09T02:04:40;10.77;;;1.30;;
64498;SDS011;51087;55.718;21.122;2022-09-09T02:10:09;1.40;;;1.10;;
64498;SDS011;51087;55.718;21.122;2022-09-09T02:12:59;4.65;;;1.17;;
64498;SDS011;51087;55.718;21.122;2022-09-09T02:15:42;1.70;;;1.13;;
64498;SDS011;51087;55.718;21.122;2022-09-09T02:21:12;3.10;;;1.20;;
64498;SDS011;51087;55.718;21.122;2022-09-09T02:23:39;2.15;;;1.20;;
64498;SDS011;51087;55.718;21.122;2022-09-09T02:26:07;2.83;;;1.40;;
64498;SDS011;51087;55.718;21.122;2022-09-09T02:28:35;4.85;;;1.10;;
64498;SDS011;51087;55.718;21.122;2022-09-09T02:31:03;3.33;;;1.00;;
64498;SDS011;51087;55.718;21.122;2022-09-09T02:33:32;6.05;;;1.35;;
64498;SDS011;51087;55.718;21.122;2022-09-09T02:36:02;1.35;;;1.00;;
64498;SDS011;51087;55.718;21.122;2022-09-09T02:38:32;1.95;;;1.20;;
64498;SDS011;51087;55.718;21.122;2022-09-09T02:41:02;2.60;;;1.20;;
64498;SDS011;51087;55.718;21.122;2022-09-09T02:43:32;1.50;;;1.05;;
64498;SDS011;51087;55.718;21.122;2022-09-09T02:51:32;1.48;;;1.10;;
64498;SDS011;51087;55.718;21.122;2022-09-09T02:56:53;3.83;;;1.20;;
64498;SDS011;51087;55.718;21.122;2022-09-09T02:59:21;1.98;;;1.17;;
64498;SDS011;51087;55.718;21.122;2022-09-09T03:01:54;3.47;;;1.00;;
64498;SDS011;51087;55.718;21.122;2022-09-09T03:04:20;2.30;;;1.00;;
64498;SDS011;51087;55.718;21.122;2022-09-09T03:06:46;4.05;;;1.10;;
64498;SDS011;51087;55.718;21.122;2022-09-09T03:09:11;3.67;;;1.10;;
64498;SDS011;51087;55.718;21.122;2022-09-09T03:11:37;2.88;;;1.00;;
64498;SDS011;51087;55.718;21.122;2022-09-09T03:14:03;3.40;;;1.30;;
64498;SDS011;51087;55.718;21.122;2022-09-09T03:16:29;1.65;;;0.90;;
64498;SDS011;51087;55.718;21.122;2022-09-09T03:18:54;4.60;;;1.10;;
64498;SDS011;51087;55.718;21.122;2022-09-09T03:21:20;6.82;;;1.20;;
64498;SDS011;51087;55.718;21.122;2022-09-09T03:23:46;1.42;;;1.00;;
64498;SDS011;51087;55.718;21.122;2022-09-09T03:26:12;2.78;;;1.10;;
64498;SDS011;51087;55.718;21.122;2022-09-09T03:28:42;1.83;;;1.02;;
64498;SDS011;51087;55.718;21.122;2022-09-09T03:31:08;6.88;;;1.20;;
64498;SDS011;51087;55.718;21.122;2022-09-09T03:33:35;2.80;;;1.00;;
64498;SDS011;51087;55.718;21.122;2022-09-09T03:36:02;2.28;;;1.15;;
64498;SDS011;51087;55.718;21.122;2022-09-09T03:38:28;2.88;;;1.10;;
64498;SDS011;51087;55.718;21.122;2022-09-09T03:40:54;3.05;;;1.10;;
64498;SDS011;51087;55.718;21.122;2022-09-09T03:43:22;2.15;;;1.10;;
64498;SDS011;51087;55.718;21.122;2022-09-09T03:45:49;2.40;;;1.00;;
64498;SDS011;51087;55.718;21.122;2022-09-09T03:48:15;2.75;;;1.13;;
64498;SDS011;51087;55.718;21.122;2022-09-09T03:50:45;2.47;;;1.00;;
64498;SDS011;51087;55.718;21.122;2022-09-09T03:53:11;1.73;;;1.10;;
64498;SDS011;51087;55.718;21.122;2022-09-09T03:55:37;4.10;;;1.38;;
64498;SDS011;51087;55.718;21.122;2022-09-09T03:58:03;4.68;;;1.20;;
64498;SDS011;51087;55.718;21.122;2022-09-09T04:00:28;1.10;;;0.98;;
64498;SDS011;51087;55.718;21.122;2022-09-09T04:02:55;5.05;;;1.10;;
64498;SDS011;51087;55.718;21.122;2022-09-09T04:05:21;1.50;;;1.00;;
64498;SDS011;51087;55.718;21.122;2022-09-09T04:07:47;3.00;;;1.15;;
64498;SDS011;51087;55.718;21.122;2022-09-09T04:10:12;1.27;;;0.93;;
64498;SDS011;51087;55.718;21.122;2022-09-09T04:12:38;3.33;;;1.10;;
64498;SDS011;51087;55.718;21.122;2022-09-09T04:15:04;4.15;;;1.30;;
64498;SDS011;51087;55.718;21.122;2022-09-09T04:17:30;4.55;;;1.02;;
64498;SDS011;51087;55.718;21.122;2022-09-09T04:19:58;4.43;;;1.17;;
64498;SDS011;51087;55.718;21.122;2022-09-09T04:22:26;1.63;;;0.93;;
64498;SDS011;51087;55.718;21.122;2022-09-09T04:24:51;3.70;;;1.38;;
64498;SDS011;51087;55.718;21.122;2022-09-09T04:27:17;3.20;;;1.10;;
64498;SDS011;51087;55.718;21.122;2022-09-09T04:29:42;2.88;;;1.52;;
64498;SDS011;51087;55.718;21.122;2022-09-09T04:32:08;6.63;;;1.20;;
64498;SDS011;51087;55.718;21.122;2022-09-09T04:34:33;8.05;;;1.13;;
64498;SDS011;51087;55.718;21.122;2022-09-09T04:36:59;3.40;;;1.42;;
64498;SDS011;51087;55.718;21.122;2022-09-09T04:39:25;9.63;;;1.17;;
64498;SDS011;51087;55.718;21.122;2022-09-09T04:41:51;2.08;;;1.08;;
64498;SDS011;51087;55.718;21.122;2022-09-09T04:44:16;5.07;;;1.45;;
64498;SDS011;51087;55.718;21.122;2022-09-09T04:46:42;5.53;;;1.30;;
64498;SDS011;51087;55.718;21.122;2022-09-09T04:49:08;5.65;;;1.80;;
64498;SDS011;51087;55.718;21.122;2022-09-09T04:51:33;6.30;;;1.40;;
64498;SDS011;51087;55.718;21.122;2022-09-09T04:53:58;3.92;;;1.60;;
64498;SDS011;51087;55.718;21.122;2022-09-09T04:56:24;2.38;;;1.30;;
64498;SDS011;51087;55.718;21.122;2022-09-09T04:58:51;5.15;;;1.50;;
64498;SDS011;51087;55.718;21.122;2022-09-09T05:01:18;5.22;;;1.70;;
64498;SDS011;51087;55.718;21.122;2022-09-09T05:03:46;4.03;;;1.40;;
64498;SDS011;51087;55.718;21.122;2022-09-09T05:06:19;4.82;;;1.30;;
64498;SDS011;51087;55.718;21.122;2022-09-09T05:08:46;1.60;;;1.25;;
64498;SDS011;51087;55.718;21.122;2022-09-09T05:11:13;5.97;;;1.27;;
64498;SDS011;51087;55.718;21.122;2022-09-09T05:13:43;7.00;;;1.30;;
64498;SDS011;51087;55.718;21.122;2022-09-09T05:16:09;1.52;;;1.08;;
64498;SDS011;51087;55.718;21.122;2022-09-09T05:18:36;2.38;;;1.15;;
64498;SDS011;51087;55.718;21.122;2022-09-09T05:21:05;2.25;;;1.05;;
64498;SDS011;51087;55.718;21.122;2022-09-09T05:23:32;5.28;;;1.20;;
64498;SDS011;51087;55.718;21.122;2022-09-09T05:25:59;3.60;;;1.02;;
64498;SDS011;51087;55.718;21.122;2022-09-09T05:28:25;5.82;;;1.38;;
64498;SDS011;51087;55.718;21.122;2022-09-09T05:31:00;1.95;;;1.10;;
64498;SDS011;51087;55.718;21.122;2022-09-09T05:33:30;6.93;;;1.50;;
64498;SDS011;51087;55.718;21.122;2022-09-09T05:35:57;2.13;;;1.13;;
64498;SDS011;51087;55.718;21.122;2022-09-09T05:38:24;8.13;;;1.40;;
64498;SDS011;51087;55.718;21.122;2022-09-09T05:40:50;3.90;;;1.60;;
64498;SDS011;51087;55.718;21.122;2022-09-09T05:43:17;7.05;;;1.65;;
64498;SDS011;51087;55.718;21.122;2022-09-09T05:45:43;3.80;;;1.00;;
64498;SDS011;51087;55.718;21.122;2022-09-09T05:48:08;1.55;;;1.00;;
64498;SDS011;51087;55.718;21.122;2022-09-09T05:50:34;3.58;;;1.58;;
64498;SDS011;51087;55.718;21.122;2022-09-09T05:52:59;3.65;;;1.45;;
64498;SDS011;51087;55.718;21.122;2022-09-09T05:55:24;2.40;;;1.45;;
64498;SDS011;51087;55.718;21.122;2022-09-09T05:57:50;7.72;;;1.90;;
64498;SDS011;51087;55.718;21.122;2022-09-09T06:00:16;7.28;;;2.50;;
64498;SDS011;51087;55.718;21.122;2022-09-09T06:02:42;8.15;;;1.80;;
64498;SDS011;51087;55.718;21.122;2022-09-09T06:05:08;2.38;;;1.20;;
64498;SDS011;51087;55.718;21.122;2022-09-09T06:07:35;11.20;;;1.65;;
64498;SDS011;51087;55.718;21.122;2022-09-09T06:10:02;6.97;;;1.10;;
64498;SDS011;51087;55.718;21.122;2022-09-09T06:12:28;3.78;;;1.20;;
64498;SDS011;51087;55.718;21.122;2022-09-09T06:14:53;11.40;;;1.35;;
64498;SDS011;51087;55.718;21.122;2022-09-09T06:17:24;8.57;;;1.60;;
64498;SDS011;51087;55.718;21.122;2022-09-09T06:19:50;6.05;;;1.55;;
64498;SDS011;51087;55.718;21.122;2022-09-09T06:22:17;2.00;;;1.15;;
64498;SDS011;51087;55.718;21.122;2022-09-09T06:24:42;7.68;;;1.30;;
64498;SDS011;51087;55.718;21.122;2022-09-09T06:27:07;2.45;;;1.10;;
64498;SDS011;51087;55.718;21.122;2022-09-09T06:29:33;7.55;;;1.40;;
64498;SDS011;51087;55.718;21.122;2022-09-09T06:31:58;6.80;;;1.50;;
64498;SDS011;51087;55.718;21.122;2022-09-09T06:34:24;11.38;;;1.55;;
64498;SDS011;51087;55.718;21.122;2022-09-09T06:36:49;9.23;;;1.70;;
64498;SDS011;51087;55.718;21.122;2022-09-09T06:39:16;3.35;;;1.40;;
64498;SDS011;51087;55.718;21.122;2022-09-09T06:41:41;7.75;;;1.20;;
64498;SDS011;51087;55.718;21.122;2022-09-09T06:44:07;8.85;;;1.55;;
64498;SDS011;51087;55.718;21.122;2022-09-09T06:46:33;2.88;;;1.40;;
64498;SDS011;51087;55.718;21.122;2022-09-09T06:49:00;11.07;;;1.73;;
64498;SDS011;51087;55.718;21.122;2022-09-09T06:51:28;6.05;;;1.30;;
64498;SDS011;51087;55.718;21.122;2022-09-09T06:53:59;2.03;;;1.38;;
64498;SDS011;51087;55.718;21.122;2022-09-09T06:56:28;8.75;;;1.40;;
64498;SDS011;51087;55.718;21.122;2022-09-09T06:58:56;3.65;;;1.30;;
64498;SDS011;51087;55.718;21.122;2022-09-09T07:01:35;6.13;;;1.25;;
64498;SDS011;51087;55.718;21.122;2022-09-09T07:06:33;12.52;;;1.63;;
64498;SDS011;51087;55.718;21.122;2022-09-09T07:09:01;3.50;;;1.40;;
64498;SDS011;51087;55.718;21.122;2022-09-09T07:11:30;2.90;;;1.35;;
64498;SDS011;51087;55.718;21.122;2022-09-09T07:13:57;8.38;;;1.50;;
64498;SDS011;51087;55.718;21.122;2022-09-09T07:16:24;6.63;;;1.25;;
64498;SDS011;51087;55.718;21.122;2022-09-09T07:18:50;3.85;;;1.35;;
64498;SDS011;51087;55.718;21.122;2022-09-09T07:21:17;4.40;;;1.50;;
64498;SDS011;51087;55.718;21.122;2022-09-09T07:23:44;9.50;;;1.40;;
64498;SDS011;51087;55.718;21.122;2022-09-09T07:28:36;2.88;;;1.20;;
64498;SDS011;51087;55.718;21.122;2022-09-09T07:31:03;1.63;;;1.20;;
64498;SDS011;51087;55.718;21.122;2022-09-09T07:33:30;6.47;;;1.45;;
64498;SDS011;51087;55.718;21.122;2022-09-09T07:36:31;8.02;;;1.50;;
64498;SDS011;51087;55.718;21.122;2022-09-09T07:38:52;4.45;;;1.15;;
64498;SDS011;51087;55.718;21.122;2022-09-09T07:41:26;4.72;;;1.38;;
64498;SDS011;51087;55.718;21.122;2022-09-09T07:43:55;6.10;;;1.27;;
64498;SDS011;51087;55.718;21.122;2022-09-09T07:46:22;3.72;;;1.55;;
64498;SDS011;51087;55.718;21.122;2022-09-09T07:48:51;6.65;;;1.38;;
64498;SDS011;51087;55.718;21.122;2022-09-09T07:51:19;3.70;;;1.30;;
64498;SDS011;51087;55.718;21.122;2022-09-09T07:53:47;11.60;;;1.55;;
64498;SDS011;51087;55.718;21.122;2022-09-09T07:56:15;7.00;;;1.20;;
64498;SDS011;51087;55.718;21.122;2022-09-09T07:58:47;6.68;;;1.50;;
64498;SDS011;51087;55.718;21.122;2022-09-09T08:01:14;5.13;;;1.55;;
64498;SDS011;51087;55.718;21.122;2022-09-09T08:03:43;5.07;;;1.52;;
64498;SDS011;51087;55.718;21.122;2022-09-09T08:06:09;9.45;;;1.60;;
64498;SDS011;51087;55.718;21.122;2022-09-09T08:08:36;4.10;;;1.40;;
64498;SDS011;51087;55.718;21.122;2022-09-09T08:11:07;8.00;;;1.23;;
64498;SDS011;51087;55.718;21.122;2022-09-09T08:13:41;6.93;;;1.65;;
64498;SDS011;51087;55.718;21.122;2022-09-09T08:16:13;2.67;;;1.55;;
64498;SDS011;51087;55.718;21.122;2022-09-09T08:18:41;5.60;;;1.40;;
64498;SDS011;51087;55.718;21.122;2022-09-09T08:21:07;4.53;;;1.42;;
64498;SDS011;51087;55.718;21.122;2022-09-09T08:23:38;11.15;;;1.48;;
64498;SDS011;51087;55.718;21.122;2022-09-09T08:26:25;10.35;;;1.50;;
64498;SDS011;51087;55.718;21.122;2022-09-09T08:28:56;4.88;;;1.70;;
64498;SDS011;51087;55.718;21.122;2022-09-09T08:31:33;6.72;;;1.20;;
64498;SDS011;51087;55.718;21.122;2022-09-09T08:34:02;4.47;;;1.38;;
64498;SDS011;51087;55.718;21.122;2022-09-09T08:36:29;3.97;;;1.40;;
64498;SDS011;51087;55.718;21.122;2022-09-09T08:38:58;5.53;;;1.48;;
64498;SDS011;51087;55.718;21.122;2022-09-09T08:47:11;10.10;;;1.20;;
64498;SDS011;51087;55.718;21.122;2022-09-09T08:58:21;6.07;;;1.52;;
64498;SDS011;51087;55.718;21.122;2022-09-09T09:03:43;13.13;;;1.90;;
64498;SDS011;51087;55.718;21.122;2022-09-09T09:09:24;9.23;;;1.65;;
64498;SDS011;51087;55.718;21.122;2022-09-09T09:12:01;8.10;;;1.77;;
64498;SDS011;51087;55.718;21.122;2022-09-09T09:14:34;5.60;;;1.60;;
64498;SDS011;51087;55.718;21.122;2022-09-09T09:17:12;5.63;;;1.52;;
64498;SDS011;51087;55.718;21.122;2022-09-09T09:19:40;4.65;;;1.60;;
64498;SDS011;51087;55.718;21.122;2022-09-09T09:25:04;5.38;;;1.48;;
64498;SDS011;51087;55.718;21.122;2022-09-09T09:27:32;6.18;;;1.55;;
64498;SDS011;51087;55.718;21.122;2022-09-09T09:29:58;7.90;;;1.70;;
64498;SDS011;51087;55.718;21.122;2022-09-09T09:32:25;8.93;;;1.95;;
64498;SDS011;51087;55.718;21.122;2022-09-09T09:34:56;11.18;;;2.20;;
64498;SDS011;51087;55.718;21.122;2022-09-09T09:37:26;11.27;;;1.65;;
64498;SDS011;51087;55.718;21.122;2022-09-09T09:39:54;11.93;;;1.38;;
64498;SDS011;51087;55.718;21.122;2022-09-09T09:42:20;7.32;;;1.27;;
64498;SDS011;51087;55.718;21.122;2022-09-09T09:44:45;9.50;;;1.23;;
64498;SDS011;51087;55.718;21.122;2022-09-09T09:47:15;8.80;;;1.45;;
64498;SDS011;51087;55.718;21.122;2022-09-09T09:49:55;6.18;;;1.45;;
64498;SDS011;51087;55.718;21.122;2022-09-09T09:52:25;9.15;;;1.50;;
64498;SDS011;51087;55.718;21.122;2022-09-09T09:54:53;9.40;;;1.17;;
64498;SDS011;51087;55.718;21.122;2022-09-09T09:57:22;5.93;;;1.40;;
64498;SDS011;51087;55.718;21.122;2022-09-09T10:00:12;7.28;;;1.50;;
64498;SDS011;51087;55.718;21.122;2022-09-09T10:02:42;11.48;;;2.03;;
64498;SDS011;51087;55.718;21.122;2022-09-09T10:05:13;14.43;;;2.15;;
64498;SDS011;51087;55.718;21.122;2022-09-09T10:07:39;8.27;;;1.60;;
64498;SDS011;51087;55.718;21.122;2022-09-09T10:10:04;12.98;;;1.65;;
64498;SDS011;51087;55.718;21.122;2022-09-09T10:12:40;12.98;;;1.70;;
64498;SDS011;51087;55.718;21.122;2022-09-09T10:18:35;5.72;;;1.80;;
64498;SDS011;51087;55.718;21.122;2022-09-09T10:29:54;12.98;;;1.70;;
64498;SDS011;51087;55.718;21.122;2022-09-09T10:35:10;7.63;;;1.63;;
64498;SDS011;51087;55.718;21.122;2022-09-09T10:37:52;11.20;;;1.40;;
64498;SDS011;51087;55.718;21.122;2022-09-09T10:51:31;13.47;;;1.83;;
64498;SDS011;51087;55.718;21.122;2022-09-09T10:59:36;10.50;;;1.73;;
64498;SDS011;51087;55.718;21.122;2022-09-09T11:04:40;9.88;;;1.60;;
64498;SDS011;51087;55.718;21.122;2022-09-09T11:07:10;8.63;;;1.60;;
64498;SDS011;51087;55.718;21.122;2022-09-09T11:09:42;5.97;;;1.85;;
64498;SDS011;51087;55.718;21.122;2022-09-09T11:12:15;14.65;;;2.47;;
64498;SDS011;51087;55.718;21.122;2022-09-09T11:14:45;16.48;;;2.10;;
64498;SDS011;51087;55.718;21.122;2022-09-09T11:17:49;6.30;;;2.03;;
64498;SDS011;51087;55.718;21.122;2022-09-09T11:20:19;5.10;;;2.40;;
64498;SDS011;51087;55.718;21.122;2022-09-09T11:25:25;12.27;;;2.00;;
64498;SDS011;51087;55.718;21.122;2022-09-09T11:44:43;4.45;;;1.85;;
64498;SDS011;51087;55.718;21.122;2022-09-09T11:47:28;9.90;;;2.25;;
64498;SDS011;51087;55.718;21.122;2022-09-09T11:50:06;8.15;;;2.15;;
64498;SDS011;51087;55.718;21.122;2022-09-09T11:53:02;4.88;;;1.83;;
64498;SDS011;51087;55.718;21.122;2022-09-09T11:55:48;7.57;;;1.60;;
64498;SDS011;51087;55.718;21.122;2022-09-09T11:58:26;9.38;;;1.80;;
64498;SDS011;51087;55.718;21.122;2022-09-09T12:00:57;13.63;;;1.70;;
64498;SDS011;51087;55.718;21.122;2022-09-09T12:03:40;5.85;;;1.60;;
64498;SDS011;51087;55.718;21.122;2022-09-09T12:06:11;11.45;;;2.05;;
64498;SDS011;51087;55.718;21.122;2022-09-09T12:08:44;16.48;;;2.40;;
64498;SDS011;51087;55.718;21.122;2022-09-09T12:11:22;8.30;;;1.90;;
64498;SDS011;51087;55.718;21.122;2022-09-09T12:13:52;5.90;;;1.70;;
64498;SDS011;51087;55.718;21.122;2022-09-09T12:16:29;5.55;;;1.75;;
64498;SDS011;51087;55.718;21.122;2022-09-09T12:24:07;6.53;;;1.92;;
64498;SDS011;51087;55.718;21.122;2022-09-09T12:26:58;14.48;;;2.05;;
64498;SDS011;51087;55.718;21.122;2022-09-09T12:29:27;8.48;;;1.95;;
64498;SDS011;51087;55.718;21.122;2022-09-09T12:32:15;8.27;;;1.98;;
64498;SDS011;51087;55.718;21.122;2022-09-09T12:34:50;6.22;;;2.38;;
64498;SDS011;51087;55.718;21.122;2022-09-09T12:39:55;7.15;;;2.30;;
64498;SDS011;51087;55.718;21.122;2022-09-09T12:42:23;11.98;;;2.67;;
64498;SDS011;51087;55.718;21.122;2022-09-09T12:45:02;10.10;;;2.67;;
64498;SDS011;51087;55.718;21.122;2022-09-09T12:47:43;8.88;;;2.35;;
64498;SDS011;51087;55.718;21.122;2022-09-09T12:50:23;13.32;;;2.50;;
64498;SDS011;51087;55.718;21.122;2022-09-09T12:52:51;14.95;;;2.45;;
64498;SDS011;51087;55.718;21.122;2022-09-09T12:55:20;14.77;;;2.70;;
64498;SDS011;51087;55.718;21.122;2022-09-09T12:57:50;15.57;;;2.90;;
64498;SDS011;51087;55.718;21.122;2022-09-09T13:00:21;7.47;;;2.40;;
64498;SDS011;51087;55.718;21.122;2022-09-09T13:05:28;10.77;;;2.25;;
64498;SDS011;51087;55.718;21.122;2022-09-09T13:08:03;7.20;;;2.75;;
64498;SDS011;51087;55.718;21.122;2022-09-09T13:10:31;17.73;;;2.50;;
64498;SDS011;51087;55.718;21.122;2022-09-09T13:15:30;6.57;;;2.30;;
64498;SDS011;51087;55.718;21.122;2022-09-09T13:17:56;8.05;;;2.33;;
64498;SDS011;51087;55.718;21.122;2022-09-09T13:20:26;8.10;;;2.28;;
64498;SDS011;51087;55.718;21.122;2022-09-09T13:22:53;7.28;;;2.45;;
64498;SDS011;51087;55.718;21.122;2022-09-09T13:25:27;6.32;;;2.30;;
64498;SDS011;51087;55.718;21.122;2022-09-09T13:27:55;5.57;;;2.50;;
64498;SDS011;51087;55.718;21.122;2022-09-09T13:30:23;11.00;;;3.05;;
64498;SDS011;51087;55.718;21.122;2022-09-09T13:33:01;12.30;;;3.10;;
64498;SDS011;51087;55.718;21.122;2022-09-09T13:35:54;8.48;;;2.70;;
64498;SDS011;51087;55.718;21.122;2022-09-09T13:38:21;9.23;;;2.40;;
64498;SDS011;51087;55.718;21.122;2022-09-09T13:41:08;9.80;;;2.50;;
64498;SDS011;51087;55.718;21.122;2022-09-09T13:43:53;7.85;;;2.00;;
64498;SDS011;51087;55.718;21.122;2022-09-09T13:46:39;13.68;;;2.30;;
64498;SDS011;51087;55.718;21.122;2022-09-09T13:51:38;8.43;;;2.10;;
64498;SDS011;51087;55.718;21.122;2022-09-09T13:54:10;5.80;;;2.15;;
64498;SDS011;51087;55.718;21.122;2022-09-09T13:56:37;11.32;;;2.10;;
64498;SDS011;51087;55.718;21.122;2022-09-09T13:59:04;15.00;;;2.30;;
64498;SDS011;51087;55.718;21.122;2022-09-09T14:01:31;5.35;;;2.03;;
64498;SDS011;51087;55.718;21.122;2022-09-09T14:03:59;7.05;;;1.90;;
64498;SDS011;51087;55.718;21.122;2022-09-09T14:06:25;6.82;;;2.20;;
64498;SDS011;51087;55.718;21.122;2022-09-09T14:08:50;6.90;;;2.00;;
64498;SDS011;51087;55.718;21.122;2022-09-09T14:11:16;10.63;;;1.90;;
64498;SDS011;51087;55.718;21.122;2022-09-09T14:13:43;20.80;;;2.58;;
64498;SDS011;51087;55.718;21.122;2022-09-09T14:16:09;6.82;;;1.88;;
64498;SDS011;51087;55.718;21.122;2022-09-09T14:18:34;6.40;;;1.92;;
64498;SDS011;51087;55.718;21.122;2022-09-09T14:21:00;6.07;;;1.52;;
64498;SDS011;51087;55.718;21.122;2022-09-09T14:23:27;4.55;;;1.50;;
64498;SDS011;51087;55.718;21.122;2022-09-09T14:25:52;7.13;;;1.30;;
64498;SDS011;51087;55.718;21.122;2022-09-09T14:28:18;4.25;;;1.50;;
64498;SDS011;51087;55.718;21.122;2022-09-09T14:30:43;9.15;;;1.65;;
64498;SDS011;51087;55.718;21.122;2022-09-09T14:33:11;8.18;;;2.05;;
64498;SDS011;51087;55.718;21.122;2022-09-09T14:35:38;6.15;;;1.40;;
64498;SDS011;51087;55.718;21.122;2022-09-09T14:38:06;8.63;;;1.80;;
64498;SDS011;51087;55.718;21.122;2022-09-09T14:40:33;9.65;;;1.85;;
64498;SDS011;51087;55.718;21.122;2022-09-09T14:43:00;5.18;;;2.03;;
64498;SDS011;51087;55.718;21.122;2022-09-09T14:45:26;2.30;;;1.40;;
64498;SDS011;51087;55.718;21.122;2022-09-09T14:47:52;9.48;;;1.80;;
64498;SDS011;51087;55.718;21.122;2022-09-09T14:50:18;14.77;;;2.00;;
64498;SDS011;51087;55.718;21.122;2022-09-09T14:52:45;5.75;;;1.60;;
64498;SDS011;51087;55.718;21.122;2022-09-09T14:55:11;13.38;;;2.13;;
64498;SDS011;51087;55.718;21.122;2022-09-09T14:57:37;13.82;;;1.90;;
64498;SDS011;51087;55.718;21.122;2022-09-09T15:00:04;9.23;;;2.80;;
64498;SDS011;51087;55.718;21.122;2022-09-09T15:02:30;7.35;;;1.55;;
64498;SDS011;51087;55.718;21.122;2022-09-09T15:04:56;5.10;;;1.70;;
64498;SDS011;51087;55.718;21.122;2022-09-09T15:07:24;5.00;;;1.70;;
64498;SDS011;51087;55.718;21.122;2022-09-09T15:09:50;6.55;;;1.42;;
64498;SDS011;51087;55.718;21.122;2022-09-09T15:12:17;4.57;;;1.80;;
64498;SDS011;51087;55.718;21.122;2022-09-09T15:14:44;4.40;;;1.65;;
64498;SDS011;51087;55.718;21.122;2022-09-09T15:17:09;7.32;;;1.65;;
64498;SDS011;51087;55.718;21.122;2022-09-09T15:19:35;3.95;;;1.80;;
64498;SDS011;51087;55.718;21.122;2022-09-09T15:22:01;6.57;;;1.83;;
64498;SDS011;51087;55.718;21.122;2022-09-09T15:24:27;4.68;;;1.73;;
64498;SDS011;51087;55.718;21.122;2022-09-09T15:26:52;11.88;;;2.10;;
64498;SDS011;51087;55.718;21.122;2022-09-09T15:29:18;8.55;;;2.15;;
64498;SDS011;51087;55.718;21.122;2022-09-09T15:31:44;6.18;;;2.13;;
64498;SDS011;51087;55.718;21.122;2022-09-09T15:34:10;5.55;;;2.35;;
64498;SDS011;51087;55.718;21.122;2022-09-09T15:36:37;7.95;;;2.60;;
64498;SDS011;51087;55.718;21.122;2022-09-09T15:39:04;6.15;;;2.85;;
64498;SDS011;51087;55.718;21.122;2022-09-09T15:41:32;12.23;;;4.97;;
64498;SDS011;51087;55.718;21.122;2022-09-09T15:43:58;7.57;;;2.50;;
64498;SDS011;51087;55.718;21.122;2022-09-09T15:46:35;8.50;;;2.67;;
64498;SDS011;51087;55.718;21.122;2022-09-09T15:49:03;11.85;;;2.17;;
64498;SDS011;51087;55.718;21.122;2022-09-09T15:51:29;7.68;;;1.90;;
64498;SDS011;51087;55.718;21.122;2022-09-09T15:53:55;7.47;;;2.10;;
64498;SDS011;51087;55.718;21.122;2022-09-09T15:56:22;8.23;;;2.13;;
64498;SDS011;51087;55.718;21.122;2022-09-09T15:58:48;6.45;;;1.77;;
64498;SDS011;51087;55.718;21.122;2022-09-09T16:01:13;4.22;;;2.30;;
64498;SDS011;51087;55.718;21.122;2022-09-09T16:03:41;5.90;;;2.15;;
64498;SDS011;51087;55.718;21.122;2022-09-09T16:06:07;6.70;;;2.10;;
64498;SDS011;51087;55.718;21.122;2022-09-09T16:08:44;8.98;;;1.73;;
64498;SDS011;51087;55.718;21.122;2022-09-09T16:11:15;5.78;;;2.28;;
64498;SDS011;51087;55.718;21.122;2022-09-09T16:13:48;5.63;;;2.70;;
64498;SDS011;51087;55.718;21.122;2022-09-09T16:16:15;11.30;;;2.00;;
64498;SDS011;51087;55.718;21.122;2022-09-09T16:18:48;6.80;;;1.88;;
64498;SDS011;51087;55.718;21.122;2022-09-09T16:21:18;8.02;;;1.80;;
64498;SDS011;51087;55.718;21.122;2022-09-09T16:23:45;5.38;;;1.80;;
64498;SDS011;51087;55.718;21.122;2022-09-09T16:26:12;6.97;;;1.75;;
64498;SDS011;51087;55.718;21.122;2022-09-09T16:28:39;7.72;;;1.83;;
64498;SDS011;51087;55.718;21.122;2022-09-09T16:31:09;7.78;;;1.85;;
64498;SDS011;51087;55.718;21.122;2022-09-09T16:33:38;9.20;;;2.03;;
64498;SDS011;51087;55.718;21.122;2022-09-09T16:36:08;8.05;;;2.00;;
64498;SDS011;51087;55.718;21.122;2022-09-09T16:38:35;6.75;;;2.00;;
64498;SDS011;51087;55.718;21.122;2022-09-09T16:41:01;10.10;;;2.38;;
64498;SDS011;51087;55.718;21.122;2022-09-09T16:43:30;9.00;;;2.08;;
64498;SDS011;51087;55.718;21.122;2022-09-09T16:45:55;4.45;;;1.85;;
64498;SDS011;51087;55.718;21.122;2022-09-09T16:48:21;4.75;;;1.80;;
64498;SDS011;51087;55.718;21.122;2022-09-09T16:50:46;7.18;;;1.85;;
64498;SDS011;51087;55.718;21.122;2022-09-09T16:53:11;7.22;;;2.10;;
64498;SDS011;51087;55.718;21.122;2022-09-09T16:55:39;5.25;;;1.90;;
64498;SDS011;51087;55.718;21.122;2022-09-09T16:58:06;3.17;;;1.65;;
64498;SDS011;51087;55.718;21.122;2022-09-09T17:00:33;2.47;;;1.50;;
64498;SDS011;51087;55.718;21.122;2022-09-09T17:02:59;7.93;;;1.70;;
64498;SDS011;51087;55.718;21.122;2022-09-09T17:05:25;5.38;;;1.60;;
64498;SDS011;51087;55.718;21.122;2022-09-09T17:07:50;7.05;;;1.92;;
64498;SDS011;51087;55.718;21.122;2022-09-09T17:10:16;6.70;;;1.63;;
64498;SDS011;51087;55.718;21.122;2022-09-09T17:12:42;4.55;;;1.55;;
64498;SDS011;51087;55.718;21.122;2022-09-09T17:15:08;4.63;;;1.60;;
64498;SDS011;51087;55.718;21.122;2022-09-09T17:17:34;4.78;;;1.77;;
64498;SDS011;51087;55.718;21.122;2022-09-09T17:20:00;6.00;;;1.70;;
64498;SDS011;51087;55.718;21.122;2022-09-09T17:22:27;6.28;;;1.80;;
64498;SDS011;51087;55.718;21.122;2022-09-09T17:24:52;4.78;;;1.52;;
64498;SDS011;51087;55.718;21.122;2022-09-09T17:27:17;4.38;;;1.70;;